Time;durP1;ratioP1;P1;durP2;ratioP2;P2;SDS_P1;SDS_P2;PMS_P1;PMS_P2;Temp;Humidity;BMP_temperature;BMP_pressure;BME280_temperature;BME280_humidity;BME280_pressure;Samples;Min_cycle;Max_cycle;Signal;HPM_P1;HPM_P2
2021/12/20 00:01:19;;;;;;;33.13;15.57;;;;;;;;;;5025310;28;20060;-80
2021/12/20 00:03:44;;;;;;;31.35;15.82;;;;;;;;;;5026831;28;20040;-80
2021/12/20 00:06:10;;;;;;;30.02;15.60;;;;;;;;;;5027818;28;20486;-78
2021/12/20 00:08:36;;;;;;;35.22;16.42;;;;;;;;;;5028933;28;20512;-79
2021/12/20 00:11:03;;;;;;;31.80;15.27;;;;;;;;;;5027811;28;20055;-80
2021/12/20 00:13:28;;;;;;;36.97;15.90;;;;;;;;;;5020363;28;20052;-79
2021/12/20 00:15:55;;;;;;;35.33;15.80;;;;;;;;;;5021770;28;20033;-79
2021/12/20 00:18:20;;;;;;;36.80;16.92;;;;;;;;;;5029137;28;20444;-79
2021/12/20 00:20:45;;;;;;;31.58;15.20;;;;;;;;;;5025936;28;20049;-79
2021/12/20 00:23:10;;;;;;;36.50;17.08;;;;;;;;;;5028620;28;20482;-79
2021/12/20 00:25:35;;;;;;;32.40;15.57;;;;;;;;;;5023850;28;20058;-79
2021/12/20 00:28:01;;;;;;;32.83;15.82;;;;;;;;;;5029418;28;20064;-79
2021/12/20 00:30:26;;;;;;;33.28;16.25;;;;;;;;;;5027280;28;20057;-78
2021/12/20 00:32:51;;;;;;;33.15;16.42;;;;;;;;;;5025461;28;20036;-79
2021/12/20 00:35:19;;;;;;;32.25;15.82;;;;;;;;;;5015757;28;20029;-78
2021/12/20 00:40:28;;;;;;;31.98;15.05;;;;;;;;;;5026076;28;20091;-81
2021/12/20 00:42:55;;;;;;;36.47;16.70;;;;;;;;;;5030159;28;20033;-79
2021/12/20 00:45:21;;;;;;;35.83;16.45;;;;;;;;;;5024339;28;20045;-80
2021/12/20 00:47:47;;;;;;;33.60;16.38;;;;;;;;;;5032207;28;20384;-80
2021/12/20 00:50:13;;;;;;;35.20;16.17;;;;;;;;;;5033152;28;20104;-82
2021/12/20 00:52:38;;;;;;;32.90;14.98;;;;;;;;;;5030891;28;20021;-79
2021/12/20 00:55:04;;;;;;;36.10;17.08;;;;;;;;;;5031737;28;20033;-79
2021/12/20 00:57:29;;;;;;;34.83;16.08;;;;;;;;;;5026551;28;20029;-80
2021/12/20 00:59:54;;;;;;;33.28;15.63;;;;;;;;;;5029560;28;20072;-80
2021/12/20 01:02:20;;;;;;;30.33;14.23;;;;;;;;;;5032798;28;20029;-80
2021/12/20 01:04:45;;;;;;;33.88;15.18;;;;;;;;;;5023319;28;20096;-80
2021/12/20 01:07:10;;;;;;;32.25;15.68;;;;;;;;;;5026269;28;20045;-81
2021/12/20 01:09:36;;;;;;;32.45;15.10;;;;;;;;;;5029468;28;20089;-79
2021/12/20 01:12:05;;;;;;;34.72;16.27;;;;;;;;;;5028034;28;20022;-81
2021/12/20 01:14:33;;;;;;;31.95;15.48;;;;;;;;;;5030584;28;20036;-78
2021/12/20 01:17:04;;;;;;;32.17;15.68;;;;;;;;;;5025870;28;20127;-80
2021/12/20 01:19:29;;;;;;;32.45;14.80;;;;;;;;;;5031933;28;20646;-78
2021/12/20 01:21:54;;;;;;;31.27;14.88;;;;;;;;;;5032920;28;20060;-78
2021/12/20 01:24:20;;;;;;;30.77;14.63;;;;;;;;;;5031531;28;20017;-78
2021/12/20 01:26:45;;;;;;;30.90;14.73;;;;;;;;;;5030207;28;20422;-80
2021/12/20 01:29:10;;;;;;;34.20;15.10;;;;;;;;;;5028289;28;20037;-77
2021/12/20 01:31:35;;;;;;;32.13;15.95;;;;;;;;;;5027649;28;20026;-78
2021/12/20 01:34:00;;;;;;;31.20;15.55;;;;;;;;;;5027318;28;20037;-79
2021/12/20 01:36:26;;;;;;;30.65;13.73;;;;;;;;;;5027438;28;20026;-78
2021/12/20 01:38:51;;;;;;;31.08;14.82;;;;;;;;;;5028947;28;20092;-80
2021/12/20 01:41:16;;;;;;;32.47;14.82;;;;;;;;;;5027945;28;20033;-79
2021/12/20 01:43:41;;;;;;;31.50;14.90;;;;;;;;;;5031837;28;20373;-78
2021/12/20 01:46:07;;;;;;;32.03;15.07;;;;;;;;;;5024761;28;20113;-77
2021/12/20 01:48:32;;;;;;;33.70;15.77;;;;;;;;;;5029142;28;20041;-79
2021/12/20 01:53:26;;;;;;;30.38;14.60;;;;;;;;;;5027376;28;20111;-77
2021/12/20 01:55:53;;;;;;;28.60;14.00;;;;;;;;;;5030887;28;20026;-79
2021/12/20 01:58:18;;;;;;;35.05;14.60;;;;;;;;;;5029700;28;20033;-78
2021/12/20 02:03:27;;;;;;;30.98;13.70;;;;;;;;;;5026452;28;20036;-77
2021/12/20 02:05:56;;;;;;;32.40;14.52;;;;;;;;;;5034337;28;20057;-79
2021/12/20 02:08:24;;;;;;;29.63;14.18;;;;;;;;;;5033176;28;20049;-79
2021/12/20 02:10:53;;;;;;;30.65;14.68;;;;;;;;;;5029686;28;20017;-80
2021/12/20 02:13:19;;;;;;;29.33;13.85;;;;;;;;;;5031355;28;20083;-79
2021/12/20 02:15:44;;;;;;;32.33;13.95;;;;;;;;;;5031369;28;20014;-79
2021/12/20 02:18:10;;;;;;;30.40;14.52;;;;;;;;;;5026569;28;20021;-78
2021/12/20 02:20:35;;;;;;;33.47;14.32;;;;;;;;;;5021283;28;20027;-79
2021/12/20 02:23:01;;;;;;;32.10;14.52;;;;;;;;;;5031639;28;20021;-80
2021/12/20 02:25:27;;;;;;;32.13;14.02;;;;;;;;;;5031304;28;20461;-78
2021/12/20 02:27:53;;;;;;;32.00;14.23;;;;;;;;;;5023881;28;20033;-79
2021/12/20 02:38:28;;;;;;;32.00;14.60;;;;;;;;;;5023467;28;20386;-79
2021/12/20 02:41:07;;;;;;;32.95;15.00;;;;;;;;;;5028193;28;20025;-79
2021/12/20 02:43:38;;;;;;;35.00;14.43;;;;;;;;;;5030623;28;20454;-80
2021/12/20 02:46:08;;;;;;;32.33;14.32;;;;;;;;;;5030961;28;20532;-78
2021/12/20 02:48:33;;;;;;;34.55;14.93;;;;;;;;;;5023776;28;20124;-80
2021/12/20 02:50:58;;;;;;;31.75;14.18;;;;;;;;;;5028570;28;20108;-79
2021/12/20 02:53:23;;;;;;;31.83;14.40;;;;;;;;;;5027910;28;20032;-78
2021/12/20 02:55:49;;;;;;;29.63;13.75;;;;;;;;;;5022795;28;20033;-76
2021/12/20 02:58:14;;;;;;;31.08;14.57;;;;;;;;;;5029689;28;20076;-78
2021/12/20 03:00:39;;;;;;;30.80;14.38;;;;;;;;;;5030296;28;20080;-77
2021/12/20 03:03:06;;;;;;;30.60;15.00;;;;;;;;;;5028188;28;20063;-79
2021/12/20 03:05:31;;;;;;;33.35;15.05;;;;;;;;;;5023201;28;20034;-77
2021/12/20 03:07:57;;;;;;;29.63;13.48;;;;;;;;;;5019955;28;20033;-78
2021/12/20 03:10:23;;;;;;;28.88;13.93;;;;;;;;;;5024066;28;20017;-78
2021/12/20 03:12:50;;;;;;;29.52;13.55;;;;;;;;;;5029145;28;20029;-79
2021/12/20 03:15:21;;;;;;;29.55;14.30;;;;;;;;;;5027493;28;20456;-80
2021/12/20 03:17:46;;;;;;;28.75;14.02;;;;;;;;;;5029600;28;20048;-79
2021/12/20 03:20:14;;;;;;;28.50;13.75;;;;;;;;;;5029534;28;20466;-78
2021/12/20 03:22:39;;;;;;;27.90;13.35;;;;;;;;;;5031985;28;20025;-78
2021/12/20 03:25:05;;;;;;;28.95;14.18;;;;;;;;;;5021558;28;20087;-77
2021/12/20 03:27:30;;;;;;;33.33;14.32;;;;;;;;;;5026994;28;20025;-77
2021/12/20 03:29:55;;;;;;;31.85;14.48;;;;;;;;;;5023821;28;20049;-78
2021/12/20 03:32:20;;;;;;;28.90;13.15;;;;;;;;;;5025479;28;20025;-79
2021/12/20 03:34:46;;;;;;;30.35;14.00;;;;;;;;;;5027846;28;20152;-79
2021/12/20 03:37:11;;;;;;;31.80;13.82;;;;;;;;;;5028701;28;20097;-78
2021/12/20 03:39:36;;;;;;;31.10;13.90;;;;;;;;;;5028754;28;20030;-77
2021/12/20 03:42:01;;;;;;;31.83;14.55;;;;;;;;;;5015811;28;20021;-76
2021/12/20 03:44:31;;;;;;;31.20;13.48;;;;;;;;;;5028688;28;20122;-77
2021/12/20 03:46:56;;;;;;;29.52;13.98;;;;;;;;;;5025572;28;20033;-77
2021/12/20 03:49:22;;;;;;;31.05;14.20;;;;;;;;;;5022263;28;20037;-79
2021/12/20 03:51:47;;;;;;;30.02;13.95;;;;;;;;;;5033165;28;20052;-77
2021/12/20 03:54:12;;;;;;;31.27;14.38;;;;;;;;;;5024681;28;20040;-78
2021/12/20 03:56:37;;;;;;;30.13;14.35;;;;;;;;;;5022188;28;20021;-78
2021/12/20 03:59:03;;;;;;;30.45;13.38;;;;;;;;;;5028609;28;20482;-77
2021/12/20 04:01:28;;;;;;;31.65;14.02;;;;;;;;;;5028653;28;20523;-79
2021/12/20 04:03:53;;;;;;;31.65;14.43;;;;;;;;;;5024014;28;20036;-78
2021/12/20 04:06:19;;;;;;;29.38;14.48;;;;;;;;;;5024402;28;20048;-78
2021/12/20 04:08:46;;;;;;;31.55;14.02;;;;;;;;;;5023227;28;20037;-77
2021/12/20 04:11:11;;;;;;;31.45;14.00;;;;;;;;;;5029510;28;20380;-78
2021/12/20 04:13:36;;;;;;;34.38;13.95;;;;;;;;;;5028556;28;20033;-79
2021/12/20 04:16:02;;;;;;;27.48;13.00;;;;;;;;;;5010844;28;20470;-78
2021/12/20 04:18:28;;;;;;;28.42;13.93;;;;;;;;;;5022760;28;20109;-78
2021/12/20 04:20:53;;;;;;;33.60;15.00;;;;;;;;;;5025296;28;20409;-78
2021/12/20 04:23:18;;;;;;;30.48;14.90;;;;;;;;;;5028140;28;20033;-78
2021/12/20 04:25:44;;;;;;;30.65;14.00;;;;;;;;;;5028166;28;20463;-78
2021/12/20 04:28:09;;;;;;;30.40;13.90;;;;;;;;;;5021817;28;20049;-77
2021/12/20 04:30:34;;;;;;;28.80;13.05;;;;;;;;;;5027992;28;20031;-77
2021/12/20 04:32:59;;;;;;;32.08;14.50;;;;;;;;;;5028793;28;20036;-80
2021/12/20 04:35:25;;;;;;;31.80;14.60;;;;;;;;;;5025204;28;20030;-78
2021/12/20 04:37:51;;;;;;;31.65;15.68;;;;;;;;;;5023217;28;20040;-78
2021/12/20 04:40:21;;;;;;;32.40;14.45;;;;;;;;;;5028557;28;20428;-78
2021/12/20 04:42:48;;;;;;;31.00;14.82;;;;;;;;;;5028449;28;20029;-78
2021/12/20 04:45:13;;;;;;;29.77;13.98;;;;;;;;;;5026593;28;20025;-78
2021/12/20 04:47:39;;;;;;;28.55;13.27;;;;;;;;;;5025928;28;20045;-78
2021/12/20 04:50:04;;;;;;;29.63;13.48;;;;;;;;;;5030437;28;20060;-78
2021/12/20 04:52:30;;;;;;;28.90;13.27;;;;;;;;;;5028250;28;20022;-78
2021/12/20 04:54:55;;;;;;;30.45;14.30;;;;;;;;;;5028952;28;20489;-78
2021/12/20 04:57:20;;;;;;;28.85;13.70;;;;;;;;;;5025204;28;20492;-79
2021/12/20 04:59:45;;;;;;;31.60;14.30;;;;;;;;;;5022315;28;20040;-79
2021/12/20 05:02:10;;;;;;;32.53;14.13;;;;;;;;;;5028719;28;20554;-78
2021/12/20 05:04:36;;;;;;;32.33;14.27;;;;;;;;;;5024157;28;20037;-78
2021/12/20 05:07:03;;;;;;;36.13;14.23;;;;;;;;;;5022556;28;20050;-79
2021/12/20 05:09:35;;;;;;;29.00;14.30;;;;;;;;;;5025447;28;20040;-81
2021/12/20 05:12:10;;;;;;;28.10;13.32;;;;;;;;;;5028957;28;20024;-80
2021/12/20 05:14:35;;;;;;;27.20;13.90;;;;;;;;;;5027417;28;20029;-80
2021/12/20 05:17:00;;;;;;;27.58;13.15;;;;;;;;;;5024546;28;20330;-80
2021/12/20 05:19:25;;;;;;;27.67;13.15;;;;;;;;;;5025080;28;20466;-78
2021/12/20 05:21:50;;;;;;;28.63;13.18;;;;;;;;;;5022814;28;20109;-79
2021/12/20 05:24:15;;;;;;;30.10;13.88;;;;;;;;;;5027265;28;20013;-78
2021/12/20 05:26:41;;;;;;;30.15;14.68;;;;;;;;;;5024043;28;20025;-77
2021/12/20 05:29:07;;;;;;;31.95;14.73;;;;;;;;;;5023053;28;20050;-78
2021/12/20 05:31:34;;;;;;;28.98;13.65;;;;;;;;;;5022874;28;20447;-79
2021/12/20 05:33:59;;;;;;;30.15;14.25;;;;;;;;;;5026926;28;20029;-79
2021/12/20 05:36:24;;;;;;;27.73;13.93;;;;;;;;;;5027630;28;20113;-77
2021/12/20 05:38:49;;;;;;;30.10;14.45;;;;;;;;;;5027565;28;20431;-78
2021/12/20 05:41:14;;;;;;;27.80;13.15;;;;;;;;;;5027238;28;20022;-79
2021/12/20 05:43:40;;;;;;;29.23;13.95;;;;;;;;;;5026543;28;20021;-78
2021/12/20 05:46:05;;;;;;;28.60;13.93;;;;;;;;;;5034185;28;20022;-77
2021/12/20 05:48:30;;;;;;;29.13;13.40;;;;;;;;;;5037246;28;20025;-78
2021/12/20 05:50:56;;;;;;;29.83;13.73;;;;;;;;;;5035748;28;20155;-78
2021/12/20 05:53:21;;;;;;;30.15;14.32;;;;;;;;;;5030622;28;20473;-79
2021/12/20 05:55:46;;;;;;;27.85;13.63;;;;;;;;;;5023625;28;20025;-78
2021/12/20 05:58:11;;;;;;;29.67;13.48;;;;;;;;;;5028584;28;20480;-78
2021/12/20 06:00:36;;;;;;;30.58;14.50;;;;;;;;;;5027364;28;20053;-79
2021/12/20 06:03:02;;;;;;;30.65;14.88;;;;;;;;;;5029425;28;20065;-79
2021/12/20 06:05:27;;;;;;;29.52;13.80;;;;;;;;;;5026327;28;20025;-78
2021/12/20 06:07:52;;;;;;;30.67;14.35;;;;;;;;;;5026711;28;20443;-77
2021/12/20 06:10:18;;;;;;;35.55;14.15;;;;;;;;;;5031567;28;20035;-76
2021/12/20 06:12:43;;;;;;;28.67;13.98;;;;;;;;;;5029420;28;20556;-76
2021/12/20 06:15:09;;;;;;;30.95;14.55;;;;;;;;;;5031460;28;20071;-76
2021/12/20 06:17:37;;;;;;;31.05;14.23;;;;;;;;;;5031536;28;20088;-75
2021/12/20 06:20:06;;;;;;;28.83;14.52;;;;;;;;;;5024231;28;20516;-77
2021/12/20 06:22:31;;;;;;;32.03;14.32;;;;;;;;;;5029048;28;20100;-78
2021/12/20 06:24:56;;;;;;;34.85;15.27;;;;;;;;;;5022138;28;20129;-78
2021/12/20 06:27:21;;;;;;;30.75;14.10;;;;;;;;;;5030867;28;20021;-76
2021/12/20 06:29:46;;;;;;;32.72;15.10;;;;;;;;;;5030071;28;20440;-77
2021/12/20 06:32:12;;;;;;;29.27;14.57;;;;;;;;;;5027178;28;20033;-77
2021/12/20 06:34:39;;;;;;;31.60;14.25;;;;;;;;;;5031386;28;20109;-79
2021/12/20 06:37:04;;;;;;;32.33;15.65;;;;;;;;;;5021767;28;20022;-79
2021/12/20 06:39:31;;;;;;;31.48;15.23;;;;;;;;;;5022639;28;20031;-78
2021/12/20 06:41:56;;;;;;;28.70;13.75;;;;;;;;;;5029716;28;20027;-78
2021/12/20 06:44:21;;;;;;;30.65;14.50;;;;;;;;;;5030899;28;20421;-78
2021/12/20 06:46:47;;;;;;;29.27;14.52;;;;;;;;;;5029090;28;20525;-69
2021/12/20 06:49:12;;;;;;;28.40;14.27;;;;;;;;;;5029540;28;20029;-69
2021/12/20 06:51:40;;;;;;;33.47;15.63;;;;;;;;;;5027171;28;20075;-69
2021/12/20 06:54:06;;;;;;;31.75;15.07;;;;;;;;;;5022200;28;20075;-69
2021/12/20 06:56:31;;;;;;;30.58;14.80;;;;;;;;;;5028852;28;20029;-69
2021/12/20 06:58:56;;;;;;;31.33;15.38;;;;;;;;;;5029783;28;20025;-69
2021/12/20 07:01:22;;;;;;;29.33;14.35;;;;;;;;;;5026402;28;20136;-68
2021/12/20 07:03:47;;;;;;;30.95;14.43;;;;;;;;;;5028549;28;20055;-68
2021/12/20 07:06:12;;;;;;;30.30;14.60;;;;;;;;;;5028538;28;20113;-68
2021/12/20 07:08:37;;;;;;;32.55;14.60;;;;;;;;;;5023458;28;20216;-68
2021/12/20 07:11:05;;;;;;;31.20;15.77;;;;;;;;;;5027024;28;20026;-68
2021/12/20 07:13:30;;;;;;;28.80;13.70;;;;;;;;;;5028875;28;20456;-69
2021/12/20 07:15:56;;;;;;;28.90;14.05;;;;;;;;;;5029403;28;20129;-68
2021/12/20 07:18:21;;;;;;;30.55;14.38;;;;;;;;;;5028782;28;20029;-68
2021/12/20 07:20:46;;;;;;;34.28;15.77;;;;;;;;;;5030206;28;20028;-69
2021/12/20 07:23:11;;;;;;;33.65;16.00;;;;;;;;;;5027987;28;20389;-69
2021/12/20 07:25:36;;;;;;;33.20;15.20;;;;;;;;;;5026632;28;20192;-69
2021/12/20 07:28:02;;;;;;;34.35;15.88;;;;;;;;;;5029847;28;20376;-69
2021/12/20 07:30:27;;;;;;;34.22;15.15;;;;;;;;;;5023777;28;20444;-69
2021/12/20 07:32:52;;;;;;;33.92;16.63;;;;;;;;;;5029989;28;20027;-69
2021/12/20 07:35:19;;;;;;;37.20;16.35;;;;;;;;;;5029106;28;20029;-68
2021/12/20 07:37:44;;;;;;;32.00;15.88;;;;;;;;;;5029772;28;20112;-69
2021/12/20 07:40:10;;;;;;;36.22;16.02;;;;;;;;;;5029302;28;20104;-69
2021/12/20 07:42:35;;;;;;;32.92;14.43;;;;;;;;;;5029432;28;20565;-69
2021/12/20 07:45:00;;;;;;;30.70;14.68;;;;;;;;;;5029063;28;20025;-68
2021/12/20 07:47:26;;;;;;;33.78;14.65;;;;;;;;;;5017967;28;20429;-69
2021/12/20 07:49:51;;;;;;;29.33;14.57;;;;;;;;;;5017992;28;20553;-68
2021/12/20 07:52:16;;;;;;;29.15;14.95;;;;;;;;;;5028699;28;20060;-69
2021/12/20 07:54:42;;;;;;;30.17;14.35;;;;;;;;;;5028964;28;20036;-69
2021/12/20 07:57:07;;;;;;;33.45;14.95;;;;;;;;;;5026221;28;20022;-68
2021/12/20 07:59:32;;;;;;;31.63;14.85;;;;;;;;;;5028713;28;20461;-68
2021/12/20 08:01:57;;;;;;;28.70;14.02;;;;;;;;;;5028178;28;20112;-70
2021/12/20 08:04:22;;;;;;;30.25;14.82;;;;;;;;;;5029125;28;20026;-68
2021/12/20 08:06:48;;;;;;;29.38;14.23;;;;;;;;;;5028703;28;20515;-69
2021/12/20 08:09:14;;;;;;;30.15;14.65;;;;;;;;;;5024567;28;20029;-68
2021/12/20 08:11:39;;;;;;;31.30;15.27;;;;;;;;;;5028877;28;20049;-68
2021/12/20 08:14:05;;;;;;;28.73;14.50;;;;;;;;;;5028851;28;20290;-68
2021/12/20 08:16:30;;;;;;;31.75;14.63;;;;;;;;;;5028692;28;20477;-68
2021/12/20 08:18:55;;;;;;;31.92;15.50;;;;;;;;;;5023566;28;20029;-68
2021/12/20 08:21:21;;;;;;;33.70;14.65;;;;;;;;;;5032321;28;20033;-69
2021/12/20 08:23:46;;;;;;;29.40;14.85;;;;;;;;;;5028860;28;20206;-68
2021/12/20 08:26:12;;;;;;;30.73;15.55;;;;;;;;;;5028329;28;20029;-69
2021/12/20 08:28:37;;;;;;;30.85;15.30;;;;;;;;;;5028389;28;20488;-68
2021/12/20 08:31:03;;;;;;;34.08;15.82;;;;;;;;;;5028356;28;20112;-69
2021/12/20 08:33:28;;;;;;;31.75;16.05;;;;;;;;;;5028818;28;20022;-68
2021/12/20 08:35:54;;;;;;;30.40;14.73;;;;;;;;;;5028462;28;20100;-69
2021/12/20 08:38:19;;;;;;;31.60;15.65;;;;;;;;;;5028319;28;20065;-69
2021/12/20 08:40:45;;;;;;;28.63;15.55;;;;;;;;;;5028380;28;20037;-68
2021/12/20 08:43:10;;;;;;;31.23;15.30;;;;;;;;;;5028156;28;20032;-68
2021/12/20 08:45:35;;;;;;;31.48;15.63;;;;;;;;;;5028067;28;20028;-68
2021/12/20 08:48:01;;;;;;;30.95;15.57;;;;;;;;;;5028632;28;20484;-69
2021/12/20 08:50:26;;;;;;;29.70;14.95;;;;;;;;;;5024275;28;20032;-68
2021/12/20 08:52:51;;;;;;;32.15;14.43;;;;;;;;;;5028566;28;20025;-69
2021/12/20 08:55:17;;;;;;;30.20;14.65;;;;;;;;;;5028195;28;20152;-68
2021/12/20 08:57:42;;;;;;;33.50;15.52;;;;;;;;;;5028400;28;20418;-68
2021/12/20 09:00:09;;;;;;;32.03;14.73;;;;;;;;;;5028536;28;20024;-69
2021/12/20 09:02:34;;;;;;;31.10;15.20;;;;;;;;;;5025079;28;20135;-68
2021/12/20 09:05:00;;;;;;;30.55;14.95;;;;;;;;;;5021906;28;20024;-69
2021/12/20 09:07:25;;;;;;;29.80;15.27;;;;;;;;;;5028023;28;20103;-68
2021/12/20 09:09:51;;;;;;;30.00;14.80;;;;;;;;;;5028219;28;20029;-68
2021/12/20 09:12:18;;;;;;;30.77;15.55;;;;;;;;;;5026227;28;20029;-68
2021/12/20 09:14:43;;;;;;;33.35;16.55;;;;;;;;;;5032276;28;20036;-68
2021/12/20 09:17:08;;;;;;;33.17;15.93;;;;;;;;;;5031796;28;20377;-68
2021/12/20 09:19:36;;;;;;;31.45;15.07;;;;;;;;;;5032255;28;20021;-69
2021/12/20 09:22:01;;;;;;;27.20;14.23;;;;;;;;;;5031596;28;20442;-69
2021/12/20 09:24:26;;;;;;;32.83;15.18;;;;;;;;;;5031942;28;20036;-68
2021/12/20 09:26:51;;;;;;;33.85;14.30;;;;;;;;;;5031500;28;20048;-69
2021/12/20 09:29:17;;;;;;;32.40;15.50;;;;;;;;;;5031911;28;20043;-69
2021/12/20 09:31:44;;;;;;;29.08;15.32;;;;;;;;;;5031707;28;20436;-68
2021/12/20 09:34:10;;;;;;;32.78;14.98;;;;;;;;;;5031553;28;20366;-69
2021/12/20 09:36:35;;;;;;;29.42;15.32;;;;;;;;;;5032001;28;20017;-68
2021/12/20 09:39:01;;;;;;;30.88;15.93;;;;;;;;;;5031672;28;20032;-69
2021/12/20 09:44:08;;;;;;;31.13;14.90;;;;;;;;;;5030882;28;20224;-68
2021/12/20 09:46:33;;;;;;;31.27;14.20;;;;;;;;;;5030222;28;20202;-68
2021/12/20 09:48:58;;;;;;;33.17;15.30;;;;;;;;;;5031175;28;20107;-69
2021/12/20 09:51:24;;;;;;;33.97;15.57;;;;;;;;;;5038537;28;20063;-68
2021/12/20 09:53:49;;;;;;;30.50;14.82;;;;;;;;;;5028208;28;20018;-68
2021/12/20 09:56:16;;;;;;;31.15;15.18;;;;;;;;;;5026462;28;20036;-69
2021/12/20 09:58:42;;;;;;;32.08;15.52;;;;;;;;;;5031312;28;20028;-68
2021/12/20 10:01:09;;;;;;;34.40;15.43;;;;;;;;;;5031319;28;20029;-69
2021/12/20 10:03:34;;;;;;;32.13;16.05;;;;;;;;;;5031427;28;20041;-68
2021/12/20 10:06:00;;;;;;;36.75;15.52;;;;;;;;;;5029576;28;20525;-68
2021/12/20 10:08:36;;;;;;;33.33;16.23;;;;;;;;;;5029933;28;20055;-70
2021/12/20 10:11:06;;;;;;;30.48;15.50;;;;;;;;;;5031458;28;20033;-69
2021/12/20 10:13:32;;;;;;;29.00;15.65;;;;;;;;;;5031732;28;20022;-68
2021/12/20 10:15:59;;;;;;;31.35;14.60;;;;;;;;;;5027269;28;20056;-70
2021/12/20 10:18:24;;;;;;;30.50;14.15;;;;;;;;;;5027298;28;20034;-68
2021/12/20 10:20:51;;;;;;;26.38;13.43;;;;;;;;;;5034369;28;20044;-69
2021/12/20 10:23:21;;;;;;;29.30;13.57;;;;;;;;;;5031116;28;20064;-69
2021/12/20 10:25:53;;;;;;;28.85;14.23;;;;;;;;;;5029392;28;20369;-69
2021/12/20 10:28:19;;;;;;;29.88;14.30;;;;;;;;;;5030835;28;20048;-69
2021/12/20 10:30:47;;;;;;;27.48;14.07;;;;;;;;;;5023821;28;20484;-68
2021/12/20 10:33:14;;;;;;;28.02;13.38;;;;;;;;;;5030624;28;20037;-69
2021/12/20 10:35:41;;;;;;;28.33;14.45;;;;;;;;;;5030654;28;20030;-68
2021/12/20 10:38:22;;;;;;;28.73;13.77;;;;;;;;;;5029555;28;20036;-69
2021/12/20 10:40:51;;;;;;;29.40;13.80;;;;;;;;;;5031352;28;20048;-69
2021/12/20 10:43:22;;;;;;;31.27;14.90;;;;;;;;;;5031044;28;20469;-69
2021/12/20 10:45:47;;;;;;;30.23;14.27;;;;;;;;;;5031103;28;20035;-69
2021/12/20 10:48:12;;;;;;;28.95;14.13;;;;;;;;;;5030093;28;20025;-69
2021/12/20 10:50:42;;;;;;;31.67;14.30;;;;;;;;;;5030648;28;20037;-69
2021/12/20 10:53:11;;;;;;;29.75;14.07;;;;;;;;;;5030736;28;20021;-69
2021/12/20 10:55:36;;;;;;;27.95;13.98;;;;;;;;;;5030854;28;20032;-68
2021/12/20 10:58:19;;;;;;;31.65;14.48;;;;;;;;;;5029437;28;20029;-69
2021/12/20 11:00:44;;;;;;;29.75;14.23;;;;;;;;;;5030328;28;20507;-69
2021/12/20 11:03:25;;;;;;;28.33;13.93;;;;;;;;;;5030650;28;20123;-69
2021/12/20 11:11:19;;;;;;;26.88;13.68;;;;;;;;;;5029713;28;20036;-68
2021/12/20 11:13:44;;;;;;;26.63;13.75;;;;;;;;;;5030680;28;20021;-69
2021/12/20 11:16:28;;;;;;;24.35;13.05;;;;;;;;;;5030540;28;20150;-70
2021/12/20 11:19:07;;;;;;;26.85;13.43;;;;;;;;;;5028151;28;20107;-69
2021/12/20 11:21:33;;;;;;;26.48;12.82;;;;;;;;;;5025319;28;20041;-69
2021/12/20 11:23:59;;;;;;;25.83;12.35;;;;;;;;;;5029477;28;20056;-69
2021/12/20 11:26:24;;;;;;;29.40;12.90;;;;;;;;;;5029986;28;20496;-71
2021/12/20 11:28:51;;;;;;;27.70;14.30;;;;;;;;;;5029775;28;20045;-68
2021/12/20 11:31:16;;;;;;;33.10;14.32;;;;;;;;;;5028370;28;20096;-70
2021/12/20 11:33:41;;;;;;;28.65;14.13;;;;;;;;;;5029751;28;20446;-69
2021/12/20 11:36:06;;;;;;;27.70;14.23;;;;;;;;;;5029319;28;20039;-69
2021/12/20 11:38:32;;;;;;;26.60;14.45;;;;;;;;;;5030027;28;20068;-69
2021/12/20 11:41:00;;;;;;;25.95;13.10;;;;;;;;;;5028592;28;20099;-69
2021/12/20 11:43:25;;;;;;;31.35;13.70;;;;;;;;;;5029721;28;20025;-69
2021/12/20 11:45:50;;;;;;;27.88;14.52;;;;;;;;;;5029559;28;20024;-71
2021/12/20 11:48:18;;;;;;;27.95;14.48;;;;;;;;;;5028859;28;20021;-69
2021/12/20 11:50:44;;;;;;;29.55;13.60;;;;;;;;;;5030190;28;20024;-69
2021/12/20 11:53:09;;;;;;;26.17;12.40;;;;;;;;;;5029090;28;20784;-62
2021/12/20 11:55:35;;;;;;;24.48;12.13;;;;;;;;;;5028930;28;20132;-64
2021/12/20 11:58:01;;;;;;;24.25;12.43;;;;;;;;;;5029069;28;20013;-63
2021/12/20 12:00:26;;;;;;;22.30;11.75;;;;;;;;;;5029281;28;20029;-62
2021/12/20 12:02:53;;;;;;;25.67;11.75;;;;;;;;;;5028093;28;20033;-63
2021/12/20 12:05:29;;;;;;;26.42;12.52;;;;;;;;;;5029238;28;20026;-63
2021/12/20 12:08:14;;;;;;;19.08;10.05;;;;;;;;;;5021872;28;20071;-62
2021/12/20 12:10:40;;;;;;;19.65;9.68;;;;;;;;;;5016232;28;20112;-64
2021/12/20 12:13:14;;;;;;;21.50;10.05;;;;;;;;;;5021295;28;20175;-62
2021/12/20 12:15:52;;;;;;;20.83;11.15;;;;;;;;;;5014462;28;20021;-64
2021/12/20 12:18:17;;;;;;;20.45;9.20;;;;;;;;;;5016318;28;20095;-63
2021/12/20 12:20:51;;;;;;;17.98;9.40;;;;;;;;;;5017953;28;20476;-65
2021/12/20 12:23:26;;;;;;;20.02;8.73;;;;;;;;;;5012120;28;20021;-63
2021/12/20 12:25:51;;;;;;;16.80;8.63;;;;;;;;;;5016892;28;20025;-64
2021/12/20 12:28:18;;;;;;;15.98;8.30;;;;;;;;;;5013594;28;20037;-62
2021/12/20 12:30:54;;;;;;;16.85;8.85;;;;;;;;;;5014459;28;20492;-63
2021/12/20 12:33:20;;;;;;;15.95;8.05;;;;;;;;;;5017349;28;20038;-62
2021/12/20 12:35:50;;;;;;;18.60;7.53;;;;;;;;;;5020372;28;20025;-63
2021/12/20 12:38:16;;;;;;;13.93;6.50;;;;;;;;;;5016733;28;20030;-62
2021/12/20 12:40:41;;;;;;;15.43;7.00;;;;;;;;;;5017658;28;20032;-63
2021/12/20 12:43:07;;;;;;;13.85;7.50;;;;;;;;;;5016586;28;20105;-63
2021/12/20 12:45:50;;;;;;;18.90;8.27;;;;;;;;;;5012670;28;20101;-63
2021/12/20 12:48:35;;;;;;;15.63;8.02;;;;;;;;;;5018095;28;20029;-63
2021/12/20 12:51:23;;;;;;;18.30;8.18;;;;;;;;;;5018958;28;20037;-62
2021/12/20 12:53:50;;;;;;;19.65;8.98;;;;;;;;;;5027294;28;20120;-63
2021/12/20 12:56:21;;;;;;;18.15;8.35;;;;;;;;;;5026863;28;20033;-63
2021/12/20 12:59:06;;;;;;;19.10;9.05;;;;;;;;;;5025551;28;20477;-62
2021/12/20 13:01:31;;;;;;;17.40;7.82;;;;;;;;;;5031568;28;20030;-63
2021/12/20 13:03:57;;;;;;;22.23;8.35;;;;;;;;;;5030510;28;20827;-62
2021/12/20 13:06:22;;;;;;;15.38;6.90;;;;;;;;;;5032193;28;20041;-63
2021/12/20 13:08:53;;;;;;;13.27;6.60;;;;;;;;;;5025539;28;20497;-62
2021/12/20 13:11:22;;;;;;;14.80;6.97;;;;;;;;;;5028048;28;20108;-63
2021/12/20 13:13:55;;;;;;;13.57;6.93;;;;;;;;;;5025804;28;20025;-63
2021/12/20 13:16:26;;;;;;;15.35;6.88;;;;;;;;;;5022581;28;20068;-62
2021/12/20 13:18:53;;;;;;;13.05;6.85;;;;;;;;;;5025546;28;20033;-62
2021/12/20 13:21:25;;;;;;;17.70;7.35;;;;;;;;;;5024209;28;20033;-63
2021/12/20 13:23:50;;;;;;;14.57;7.43;;;;;;;;;;5022395;28;20104;-65
2021/12/20 13:26:21;;;;;;;15.70;7.90;;;;;;;;;;5029997;28;20466;-62
2021/12/20 13:28:51;;;;;;;15.98;7.20;;;;;;;;;;5026551;28;20044;-63
2021/12/20 13:31:17;;;;;;;15.68;7.88;;;;;;;;;;5017825;28;20021;-63
2021/12/20 13:33:51;;;;;;;14.50;7.07;;;;;;;;;;5031698;28;20128;-62
2021/12/20 13:36:21;;;;;;;14.73;7.57;;;;;;;;;;5024759;28;20064;-62
2021/12/20 13:38:48;;;;;;;18.38;7.07;;;;;;;;;;5024720;28;20021;-62
2021/12/20 13:41:16;;;;;;;14.02;7.10;;;;;;;;;;5030974;28;20025;-62
2021/12/20 13:43:54;;;;;;;15.80;7.93;;;;;;;;;;5027037;28;20024;-63
2021/12/20 13:46:27;;;;;;;17.95;7.72;;;;;;;;;;5022085;28;20122;-63
2021/12/20 13:49:18;;;;;;;17.25;6.78;;;;;;;;;;5029984;28;20124;-62
2021/12/20 13:51:45;;;;;;;13.52;6.70;;;;;;;;;;4988835;28;20034;-63
2021/12/20 13:54:19;;;;;;;11.63;6.03;;;;;;;;;;4984060;28;20053;-62
2021/12/20 13:56:54;;;;;;;11.35;5.70;;;;;;;;;;4974983;28;20034;-63
2021/12/20 13:59:26;;;;;;;9.68;5.68;;;;;;;;;;4983123;28;20030;-63
2021/12/20 14:01:52;;;;;;;12.05;5.60;;;;;;;;;;4987974;28;20605;-63
2021/12/20 14:04:26;;;;;;;11.30;5.30;;;;;;;;;;4988447;28;20160;-63
2021/12/20 14:06:51;;;;;;;14.73;6.10;;;;;;;;;;4987395;28;20094;-63
2021/12/20 14:09:25;;;;;;;9.07;4.22;;;;;;;;;;4979331;28;20141;-63
2021/12/20 14:12:09;;;;;;;8.50;4.30;;;;;;;;;;4984939;28;20431;-63
2021/12/20 14:14:34;;;;;;;10.77;4.78;;;;;;;;;;4986973;28;20058;-62
2021/12/20 14:17:00;;;;;;;9.20;4.65;;;;;;;;;;4985612;28;20054;-63
2021/12/20 14:19:44;;;;;;;8.90;3.63;;;;;;;;;;4982738;28;20026;-63
2021/12/20 14:22:09;;;;;;;6.72;3.25;;;;;;;;;;4981307;28;20608;-63
2021/12/20 14:24:38;;;;;;;8.95;3.58;;;;;;;;;;4983793;28;20050;-64
2021/12/20 14:27:03;;;;;;;9.23;3.60;;;;;;;;;;4988581;28;20523;-64
2021/12/20 14:29:32;;;;;;;7.80;3.40;;;;;;;;;;5021036;28;20081;-64
2021/12/20 14:32:00;;;;;;;7.60;3.20;;;;;;;;;;5023993;28;20036;-64
2021/12/20 14:34:34;;;;;;;9.63;3.70;;;;;;;;;;5030290;28;20026;-64
2021/12/20 14:37:06;;;;;;;9.80;3.97;;;;;;;;;;5030769;28;20029;-64
2021/12/20 14:39:39;;;;;;;9.52;3.67;;;;;;;;;;5030534;28;20021;-64
2021/12/20 14:42:04;;;;;;;8.75;3.63;;;;;;;;;;5030483;28;20025;-63